Time;durP1;ratioP1;P1;durP2;ratioP2;P2;SDS_P1;SDS_P2;PMS_P1;PMS_P2;Temp;Humidity;BMP_temperature;BMP_pressure;BME280_temperature;BME280_humidity;BME280_pressure;Samples;Min_cycle;Max_cycle;Signal;HPM_P1;HPM_P2
2023/01/18 00:00:40;;;;;;;5.75;3.10;;;1.50;94.30;;;;;;5006847;28;21069;-66
2023/01/18 00:03:11;;;;;;;5.28;3.25;;;1.50;94.40;;;;;;5009188;28;20041;-66
2023/01/18 00:05:41;;;;;;;5.00;2.90;;;1.50;93.60;;;;;;5007210;28;20037;-66
2023/01/18 00:08:12;;;;;;;5.93;2.72;;;1.50;93.40;;;;;;5009841;28;20128;-66
2023/01/18 00:10:38;;;;;;;2.75;2.13;;;1.30;93.70;;;;;;5009697;28;20948;-63
2023/01/18 00:13:04;;;;;;;4.50;2.50;;;1.20;94.20;;;;;;5009586;28;20215;-67
2023/01/18 00:15:31;;;;;;;3.92;2.45;;;1.20;94.60;;;;;;5008143;28;20077;-65
2023/01/18 00:17:57;;;;;;;4.53;2.35;;;1.20;94.80;;;;;;5014016;28;20045;-66
2023/01/18 00:20:26;;;;;;;3.90;2.50;;;1.10;95.00;;;;;;5010801;28;20428;-65
2023/01/18 00:22:52;;;;;;;5.80;3.17;;;1.10;95.20;;;;;;5010150;28;20033;-65
2023/01/18 00:25:20;;;;;;;7.10;3.05;;;1.10;94.80;;;;;;5011682;28;20061;-65
2023/01/18 00:27:48;;;;;;;6.25;3.13;;;1.10;94.20;;;;;;5010626;28;20112;-65
2023/01/18 00:30:16;;;;;;;4.95;2.70;;;1.00;93.80;;;;;;5009620;28;20025;-67
2023/01/18 00:32:52;;;;;;;4.63;2.72;;;0.90;94.20;;;;;;5008698;28;20109;-65
2023/01/18 00:35:20;;;;;;;3.90;2.50;;;0.80;94.40;;;;;;5009995;28;20124;-66
2023/01/18 00:37:47;;;;;;;5.75;2.67;;;0.80;94.70;;;;;;5011787;28;20903;-66
2023/01/18 00:40:14;;;;;;;5.35;2.50;;;0.80;94.90;;;;;;5010747;28;20103;-70
2023/01/18 00:45:26;;;;;;;3.75;2.80;;;0.70;95.30;;;;;;5009246;28;20045;-71
2023/01/18 00:47:52;;;;;;;8.52;2.85;;;0.70;95.30;;;;;;5010898;28;20034;-69
2023/01/18 00:50:21;;;;;;;3.88;2.70;;;0.70;95.00;;;;;;5009875;28;20414;-69
2023/01/18 00:52:48;;;;;;;8.48;3.17;;;0.70;94.50;;;;;;5007465;28;20038;-65
2023/01/18 00:55:15;;;;;;;6.15;3.10;;;0.70;94.00;;;;;;5009814;28;20026;-65
2023/01/18 00:57:42;;;;;;;5.32;3.08;;;0.60;94.10;;;;;;5010096;28;20029;-70
2023/01/18 01:00:14;;;;;;;6.78;3.15;;;0.60;94.30;;;;;;5011691;28;20037;-63
2023/01/18 01:02:40;;;;;;;8.27;3.45;;;0.60;94.10;;;;;;5007849;28;20147;-62
2023/01/18 01:08:01;;;;;;;5.00;3.00;;;0.40;94.80;;;;;;5015935;28;20029;-65
2023/01/18 01:10:27;;;;;;;8.98;3.40;;;0.40;95.20;;;;;;5008550;28;20056;-66
2023/01/18 01:26:34;;;;;;;3.50;2.70;;;0.50;95.70;;;;;;5006477;28;20472;-71
2023/01/18 01:29:00;;;;;;;6.93;3.53;;;0.40;95.90;;;;;;5009432;28;20026;-70
2023/01/18 01:31:26;;;;;;;4.97;2.60;;;0.50;95.80;;;;;;5007056;28;20037;-70
2023/01/18 01:33:52;;;;;;;6.90;2.67;;;0.50;95.80;;;;;;5006412;28;20048;-69
2023/01/18 01:36:20;;;;;;;5.78;2.67;;;0.60;95.80;;;;;;5008167;28;20064;-69
2023/01/18 01:38:46;;;;;;;4.22;2.65;;;0.50;95.70;;;;;;5010987;28;20108;-70
2023/01/18 01:41:28;;;;;;;10.90;2.60;;;0.60;95.60;;;;;;5003163;28;20076;-66
2023/01/18 01:44:19;;;;;;;6.45;3.00;;;0.60;95.60;;;;;;5009565;28;20033;-66
2023/01/18 01:46:56;;;;;;;9.25;2.95;;;0.70;95.70;;;;;;5011953;28;20113;-66
2023/01/18 01:49:25;;;;;;;7.70;3.45;;;0.70;95.80;;;;;;5011314;28;20072;-68
2023/01/18 01:51:56;;;;;;;4.80;2.33;;;0.70;95.90;;;;;;5007344;28;20033;-68
2023/01/18 01:54:27;;;;;;;3.42;2.22;;;0.70;96.30;;;;;;5005971;28;20046;-66
2023/01/18 01:57:24;;;;;;;3.03;2.10;;;0.80;96.40;;;;;;5007062;28;20045;-66
2023/01/18 02:00:00;;;;;;;4.80;2.40;;;0.80;96.40;;;;;;5007148;28;20073;-65
2023/01/18 02:02:28;;;;;;;4.43;2.03;;;0.90;96.70;;;;;;5007782;28;20853;-66
2023/01/18 02:04:56;;;;;;;4.13;2.20;;;0.90;96.70;;;;;;5008321;28;20049;-66
2023/01/18 02:07:25;;;;;;;5.00;2.78;;;0.90;96.80;;;;;;5008398;28;20561;-66
2023/01/18 02:09:52;;;;;;;3.85;2.70;;;0.90;96.70;;;;;;5015101;28;20850;-65
2023/01/18 02:12:18;;;;;;;5.70;3.40;;;0.80;96.50;;;;;;5009403;28;20030;-66
2023/01/18 02:14:44;;;;;;;4.85;2.88;;;0.90;95.90;;;;;;5008940;28;20268;-66
2023/01/18 02:17:31;;;;;;;5.53;2.60;;;0.90;95.10;;;;;;5009485;28;20038;-66
2023/01/18 02:20:24;;;;;;;5.00;2.33;;;0.90;95.00;;;;;;5012379;28;20029;-69
2023/01/18 02:23:08;;;;;;;3.75;2.40;;;0.90;94.50;;;;;;5004390;28;20405;-69
2023/01/18 02:25:40;;;;;;;5.88;3.47;;;0.80;94.60;;;;;;5008314;28;20038;-69
2023/01/18 02:28:14;;;;;;;5.10;2.92;;;0.80;95.00;;;;;;5005013;28;20397;-71
2023/01/18 02:31:09;;;;;;;6.13;2.60;;;0.90;95.40;;;;;;5007654;28;20596;-69
2023/01/18 02:33:55;;;;;;;5.97;2.78;;;0.90;95.60;;;;;;5005950;28;20049;-70
2023/01/18 02:36:44;;;;;;;6.43;3.00;;;0.90;95.90;;;;;;4982767;28;20341;-65
2023/01/18 02:39:22;;;;;;;5.53;2.63;;;0.90;96.30;;;;;;5000614;28;20054;-66
2023/01/18 02:47:31;;;;;;;6.68;2.30;;;1.10;97.10;;;;;;5010172;28;20787;-69
2023/01/18 02:49:57;;;;;;;6.53;2.13;;;1.00;97.20;;;;;;5009089;28;20311;-68
2023/01/18 02:52:48;;;;;;;6.82;2.75;;;1.00;97.60;;;;;;5005984;28;20036;-68
2023/01/18 02:55:32;;;;;;;3.65;2.03;;;1.10;97.20;;;;;;5008253;28;20041;-68
2023/01/18 02:58:24;;;;;;;4.95;2.13;;;1.10;97.00;;;;;;5010092;28;20040;-66
2023/01/18 03:00:58;;;;;;;6.85;2.95;;;1.10;96.80;;;;;;5010117;28;20041;-66
2023/01/18 03:03:25;;;;;;;4.45;2.33;;;1.10;96.50;;;;;;5007070;28;20037;-66
2023/01/18 03:05:54;;;;;;;6.15;2.28;;;1.20;96.50;;;;;;5009705;28;20105;-69
2023/01/18 03:08:26;;;;;;;7.80;3.55;;;1.20;96.70;;;;;;5004924;28;20695;-68
2023/01/18 03:10:59;;;;;;;5.18;2.55;;;1.30;96.80;;;;;;5005087;28;20080;-72
2023/01/18 03:13:41;;;;;;;4.47;2.63;;;1.30;96.80;;;;;;5006471;28;20025;-72
2023/01/18 03:16:21;;;;;;;3.60;2.47;;;1.30;97.00;;;;;;5005840;28;20421;-70
2023/01/18 03:21:59;;;;;;;8.68;2.50;;;1.30;97.20;;;;;;5006728;28;20129;-72
2023/01/18 03:24:28;;;;;;;3.42;2.08;;;1.30;97.10;;;;;;5004708;28;20037;-72
2023/01/18 03:35:26;;;;;;;5.68;3.00;;;1.20;96.60;;;;;;5006051;28;20458;-71
2023/01/18 03:37:53;;;;;;;5.50;3.05;;;1.20;96.50;;;;;;5009606;28;20030;-68
2023/01/18 03:40:26;;;;;;;5.57;3.00;;;1.20;96.50;;;;;;5004567;28;20030;-68
2023/01/18 03:43:16;;;;;;;5.60;3.30;;;1.20;96.60;;;;;;5006419;28;20037;-67
2023/01/18 03:45:46;;;;;;;3.85;2.47;;;1.30;95.50;;;;;;5006713;28;20037;-68
2023/01/18 03:48:14;;;;;;;7.25;2.95;;;1.20;95.10;;;;;;5006841;28;20054;-68
2023/01/18 03:51:13;;;;;;;4.93;2.90;;;1.20;95.20;;;;;;5012624;28;20029;-68
2023/01/18 03:53:49;;;;;;;7.00;2.40;;;1.20;95.40;;;;;;5012317;28;20034;-68
2023/01/18 03:56:24;;;;;;;6.32;2.15;;;1.10;95.80;;;;;;5010449;28;20035;-68
2023/01/18 03:58:52;;;;;;;6.95;3.00;;;1.10;95.90;;;;;;5010875;28;20038;-67
2023/01/18 04:01:19;;;;;;;6.55;2.80;;;1.10;95.60;;;;;;5009416;28;20034;-67
2023/01/18 04:03:44;;;;;;;7.03;2.90;;;1.10;95.10;;;;;;5008008;28;20048;-68
2023/01/18 04:06:10;;;;;;;6.65;2.72;;;1.00;95.00;;;;;;5013322;28;20029;-71
2023/01/18 04:08:36;;;;;;;4.78;2.97;;;1.00;95.30;;;;;;5011512;28;20520;-71
2023/01/18 04:11:02;;;;;;;7.82;3.10;;;1.10;95.50;;;;;;5012389;28;20041;-71
2023/01/18 04:13:27;;;;;;;4.95;2.88;;;1.10;95.70;;;;;;5012013;28;20030;-71
2023/01/18 04:15:53;;;;;;;4.03;2.83;;;1.10;95.90;;;;;;5014930;28;20068;-72
2023/01/18 04:18:19;;;;;;;3.72;2.53;;;1.10;96.20;;;;;;5008944;28;20549;-71
2023/01/18 04:20:44;;;;;;;5.00;2.40;;;1.20;96.40;;;;;;5011042;28;20057;-71
2023/01/18 04:23:10;;;;;;;6.57;3.63;;;1.20;96.50;;;;;;5012380;28;20047;-71
2023/01/18 04:25:39;;;;;;;4.25;2.65;;;1.30;96.70;;;;;;5010497;28;20818;-71
2023/01/18 04:28:06;;;;;;;4.82;2.67;;;1.30;96.60;;;;;;5007132;28;20036;-71
2023/01/18 04:30:32;;;;;;;4.03;2.58;;;1.30;96.60;;;;;;5011385;28;20150;-71
2023/01/18 04:32:58;;;;;;;4.20;2.75;;;1.30;96.80;;;;;;5012378;28;20409;-71
2023/01/18 04:35:24;;;;;;;7.18;3.00;;;1.30;96.80;;;;;;5011390;28;20037;-73
2023/01/18 04:37:51;;;;;;;4.55;2.60;;;1.30;97.00;;;;;;5012341;28;20040;-73
2023/01/18 04:40:17;;;;;;;5.25;2.83;;;1.40;96.70;;;;;;5008835;28;20409;-71
2023/01/18 04:42:43;;;;;;;4.10;2.60;;;1.40;96.40;;;;;;5010911;28;20026;-72
2023/01/18 04:45:12;;;;;;;4.10;2.72;;;1.40;96.50;;;;;;5010288;28;20041;-71
2023/01/18 04:47:38;;;;;;;3.95;2.72;;;1.40;96.60;;;;;;5009728;28;20437;-72
2023/01/18 04:50:06;;;;;;;5.05;2.72;;;1.40;96.60;;;;;;5011622;28;20125;-72
2023/01/18 04:52:32;;;;;;;3.95;2.60;;;1.40;96.80;;;;;;5007806;28;20528;-72
2023/01/18 04:54:58;;;;;;;5.65;2.80;;;1.40;96.80;;;;;;5011469;28;20036;-72
2023/01/18 04:57:24;;;;;;;4.43;2.45;;;1.50;96.70;;;;;;5010749;28;20565;-72
2023/01/18 04:59:49;;;;;;;7.45;2.33;;;1.50;96.50;;;;;;5012616;28;20052;-71
2023/01/18 05:02:15;;;;;;;4.65;2.38;;;1.50;96.50;;;;;;5010894;28;20051;-71
2023/01/18 05:04:42;;;;;;;4.30;2.60;;;1.50;96.50;;;;;;5005497;28;20112;-71
2023/01/18 05:07:08;;;;;;;4.85;2.72;;;1.60;96.50;;;;;;5009969;28;20148;-72
2023/01/18 05:09:33;;;;;;;8.80;3.03;;;1.60;96.40;;;;;;5008360;28;20478;-72
2023/01/18 05:11:59;;;;;;;5.43;2.95;;;1.60;96.30;;;;;;5011240;28;20033;-73
2023/01/18 05:14:25;;;;;;;3.67;2.30;;;1.60;96.30;;;;;;5010476;28;20720;-73
2023/01/18 05:16:50;;;;;;;7.75;2.95;;;1.60;96.30;;;;;;5011546;28;20071;-72
2023/01/18 05:19:16;;;;;;;4.95;3.00;;;1.70;96.20;;;;;;5007817;28;20215;-72
2023/01/18 05:21:42;;;;;;;9.95;3.45;;;1.70;96.20;;;;;;5007843;28;20061;-72
2023/01/18 05:24:08;;;;;;;9.70;3.35;;;1.70;96.20;;;;;;5007957;28;20033;-73
2023/01/18 05:26:34;;;;;;;6.05;3.47;;;1.70;96.40;;;;;;5007697;28;20087;-72
2023/01/18 05:28:59;;;;;;;6.40;3.50;;;1.80;96.40;;;;;;5006151;28;20034;-71
2023/01/18 05:31:25;;;;;;;6.13;3.85;;;1.80;96.50;;;;;;5008105;28;20038;-71
2023/01/18 05:33:52;;;;;;;6.60;3.30;;;1.80;96.60;;;;;;5005507;28;20051;-71
2023/01/18 05:36:17;;;;;;;7.22;3.45;;;1.80;96.60;;;;;;5008667;28;20041;-73
2023/01/18 05:38:43;;;;;;;6.88;3.75;;;1.90;97.00;;;;;;5008757;28;20799;-71
2023/01/18 05:41:09;;;;;;;5.70;3.42;;;1.90;96.80;;;;;;5014681;28;20025;-70
2023/01/18 05:43:36;;;;;;;6.43;3.10;;;1.90;96.80;;;;;;5010179;28;20032;-70
2023/01/18 05:46:04;;;;;;;6.00;3.42;;;2.00;96.70;;;;;;5007794;28;20029;-70
2023/01/18 05:48:30;;;;;;;8.48;3.60;;;1.90;96.60;;;;;;5008484;28;20095;-71
2023/01/18 05:50:55;;;;;;;7.38;3.33;;;2.00;96.60;;;;;;5011065;28;20507;-70
2023/01/18 05:53:22;;;;;;;5.22;3.20;;;2.00;96.70;;;;;;5007219;28;20117;-70
2023/01/18 05:55:57;;;;;;;5.78;3.65;;;2.00;96.60;;;;;;5006465;28;20030;-71
2023/01/18 05:58:24;;;;;;;5.97;3.13;;;2.00;96.70;;;;;;5008055;28;20037;-71
2023/01/18 06:00:50;;;;;;;7.30;3.53;;;2.10;96.60;;;;;;5012188;28;20098;-70
2023/01/18 06:03:16;;;;;;;7.85;3.17;;;2.00;96.60;;;;;;5008493;28;20041;-70
2023/01/18 06:05:41;;;;;;;6.43;3.38;;;2.00;96.60;;;;;;5004920;28;20041;-70
2023/01/18 06:08:07;;;;;;;4.82;3.25;;;2.10;96.70;;;;;;5008881;28;20511;-70
2023/01/18 06:10:33;;;;;;;6.25;3.63;;;2.10;96.70;;;;;;5010801;28;20029;-70
2023/01/18 06:12:59;;;;;;;7.28;3.65;;;2.10;96.70;;;;;;5014879;28;20409;-70
2023/01/18 06:15:24;;;;;;;5.22;3.35;;;2.10;96.60;;;;;;5016673;28;20132;-70
2023/01/18 06:17:50;;;;;;;7.15;4.03;;;2.20;96.60;;;;;;5015212;28;20132;-71
2023/01/18 06:20:16;;;;;;;8.05;3.75;;;2.20;96.40;;;;;;5014221;28;20072;-70
2023/01/18 06:22:44;;;;;;;8.35;3.90;;;2.20;96.40;;;;;;5015586;28;20053;-70
2023/01/18 06:25:10;;;;;;;9.38;3.80;;;2.20;96.40;;;;;;5014119;28;20041;-70
2023/01/18 06:27:37;;;;;;;6.68;3.22;;;2.20;96.50;;;;;;5011925;28;20038;-70
2023/01/18 06:30:05;;;;;;;6.55;3.00;;;2.20;96.50;;;;;;5012267;28;20038;-70
2023/01/18 06:32:31;;;;;;;12.10;4.05;;;2.20;96.50;;;;;;5013346;28;20115;-70
2023/01/18 06:34:57;;;;;;;7.60;3.70;;;2.20;96.50;;;;;;5008847;28;20041;-70
2023/01/18 06:37:24;;;;;;;8.38;3.58;;;2.20;96.50;;;;;;5013490;28;20067;-71
2023/01/18 06:39:50;;;;;;;7.82;3.40;;;2.20;96.50;;;;;;5013183;28;20037;-70
2023/01/18 06:42:16;;;;;;;5.63;3.47;;;2.30;96.40;;;;;;5012105;28;20033;-70
2023/01/18 06:44:42;;;;;;;6.63;3.33;;;2.30;96.30;;;;;;5011378;28;20543;-70
2023/01/18 06:47:08;;;;;;;7.90;3.63;;;2.30;96.30;;;;;;5015665;28;20029;-70
2023/01/18 06:49:34;;;;;;;8.10;3.22;;;2.30;96.30;;;;;;5011099;28;20034;-70
2023/01/18 06:52:00;;;;;;;4.97;3.17;;;2.30;96.30;;;;;;5012243;28;20048;-69
2023/01/18 06:54:26;;;;;;;9.05;3.60;;;2.30;96.30;;;;;;5009611;28;20053;-70
2023/01/18 06:56:51;;;;;;;7.85;3.40;;;2.30;96.30;;;;;;5013670;28;20041;-71
2023/01/18 06:59:17;;;;;;;7.07;3.50;;;2.20;96.40;;;;;;5010614;28;20538;-71
2023/01/18 07:01:43;;;;;;;6.70;3.38;;;2.30;96.20;;;;;;5014050;28;20033;-71
2023/01/18 07:04:09;;;;;;;5.57;3.17;;;2.30;96.20;;;;;;5012537;28;20068;-70
2023/01/18 07:06:35;;;;;;;7.00;3.47;;;2.20;96.20;;;;;;5012474;28;20037;-70
2023/01/18 07:09:01;;;;;;;5.43;2.92;;;2.30;96.30;;;;;;5013746;28;20029;-70
2023/01/18 07:11:27;;;;;;;7.82;3.08;;;2.30;96.00;;;;;;5008431;28;20405;-67
2023/01/18 07:13:53;;;;;;;5.78;3.10;;;2.30;96.10;;;;;;5014922;28;20034;-67
2023/01/18 07:16:20;;;;;;;7.78;3.20;;;2.30;96.20;;;;;;5010214;28;20040;-67
2023/01/18 07:18:47;;;;;;;7.82;3.28;;;2.30;96.20;;;;;;5018776;28;20064;-67
2023/01/18 07:21:15;;;;;;;5.70;3.15;;;2.30;96.10;;;;;;5014418;28;20034;-67
2023/01/18 07:23:42;;;;;;;7.97;3.03;;;2.20;96.20;;;;;;5010728;28;20025;-70
2023/01/18 07:26:10;;;;;;;4.25;2.63;;;2.20;96.20;;;;;;5018242;28;20405;-70
2023/01/18 07:28:36;;;;;;;14.32;3.58;;;2.20;96.20;;;;;;5015023;28;20151;-70
2023/01/18 07:31:04;;;;;;;9.35;3.65;;;2.30;96.30;;;;;;5014902;28;20030;-70
2023/01/18 07:33:30;;;;;;;7.18;3.20;;;2.30;96.20;;;;;;5017617;28;20064;-70
2023/01/18 07:35:57;;;;;;;6.75;3.08;;;2.30;96.20;;;;;;5015812;28;20052;-70
2023/01/18 07:38:23;;;;;;;6.50;3.58;;;2.30;96.20;;;;;;5013697;28;20103;-70
2023/01/18 07:40:49;;;;;;;7.03;3.05;;;2.30;96.00;;;;;;5016158;28;20764;-71
2023/01/18 07:43:16;;;;;;;6.88;3.50;;;2.40;96.20;;;;;;5015609;28;20033;-71
2023/01/18 07:45:43;;;;;;;5.90;3.30;;;2.40;96.20;;;;;;5013675;28;20033;-70
2023/01/18 07:48:09;;;;;;;6.45;3.72;;;2.40;96.20;;;;;;5016130;28;20032;-70
2023/01/18 07:50:35;;;;;;;9.32;3.58;;;2.50;96.10;;;;;;5015383;28;20136;-70
2023/01/18 07:53:07;;;;;;;5.43;3.10;;;2.50;95.90;;;;;;5010303;28;20044;-70
2023/01/18 07:55:34;;;;;;;8.95;3.30;;;2.50;95.90;;;;;;5011913;28;20045;-70
2023/01/18 07:58:00;;;;;;;10.40;3.72;;;2.60;96.00;;;;;;5012502;28;20506;-71
2023/01/18 08:00:27;;;;;;;8.38;3.20;;;2.60;95.90;;;;;;5014928;28;20029;-71
2023/01/18 08:02:54;;;;;;;10.93;3.45;;;2.70;95.90;;;;;;5015378;28;20072;-70
2023/01/18 08:05:22;;;;;;;4.95;3.00;;;2.70;95.80;;;;;;5011330;28;20085;-70
2023/01/18 08:07:55;;;;;;;7.13;3.58;;;2.70;95.80;;;;;;5009838;28;20371;-70
2023/01/18 08:10:21;;;;;;;4.22;3.08;;;2.70;95.80;;;;;;5012675;28;20505;-70
2023/01/18 08:12:47;;;;;;;10.43;3.78;;;2.70;95.90;;;;;;5014909;28;20985;-71
2023/01/18 08:15:13;;;;;;;6.15;3.10;;;2.80;95.90;;;;;;5010191;28;20087;-70
2023/01/18 08:17:38;;;;;;;5.70;3.22;;;2.80;95.90;;;;;;5008838;28;20038;-71
2023/01/18 08:20:08;;;;;;;5.78;3.22;;;2.90;96.20;;;;;;5017932;28;20033;-71
2023/01/18 08:22:34;;;;;;;7.07;2.95;;;3.00;95.80;;;;;;5013382;28;20819;-70
2023/01/18 08:25:00;;;;;;;5.82;3.00;;;3.00;95.80;;;;;;5015823;28;20156;-71
2023/01/18 08:27:27;;;;;;;5.60;3.28;;;3.10;95.80;;;;;;5013445;28;20040;-71
2023/01/18 08:29:52;;;;;;;3.88;3.10;;;3.10;95.90;;;;;;5014461;28;20743;-69
2023/01/18 08:32:18;;;;;;;7.90;3.20;;;3.20;95.70;;;;;;5009185;28;20033;-70
2023/01/18 08:34:44;;;;;;;7.97;3.28;;;3.30;95.70;;;;;;5013429;28;20029;-70
2023/01/18 08:37:10;;;;;;;7.60;3.28;;;3.40;95.80;;;;;;5016516;28;20045;-71
2023/01/18 08:39:37;;;;;;;8.77;4.05;;;3.40;95.70;;;;;;5012717;28;20089;-70
2023/01/18 08:42:03;;;;;;;11.77;4.03;;;3.40;95.70;;;;;;5012103;28;20125;-71
2023/01/18 08:44:29;;;;;;;6.60;3.85;;;3.50;95.50;;;;;;5012242;28;20406;-69
2023/01/18 08:46:55;;;;;;;9.50;3.92;;;3.60;95.50;;;;;;5001762;28;20044;-69
2023/01/18 08:49:21;;;;;;;8.60;4.15;;;3.60;95.50;;;;;;5013462;28;20037;-69
2023/01/18 08:51:47;;;;;;;14.05;6.97;;;3.60;95.20;;;;;;5011137;28;20111;-69
2023/01/18 08:54:12;;;;;;;10.10;5.93;;;3.70;95.40;;;;;;5012383;28;20040;-70
2023/01/18 08:56:38;;;;;;;12.93;5.18;;;3.80;95.80;;;;;;5009961;28;20037;-70
2023/01/18 08:59:08;;;;;;;9.63;4.90;;;3.80;95.50;;;;;;5008503;28;20505;-70
2023/01/18 09:01:33;;;;;;;12.07;5.13;;;3.80;95.70;;;;;;5009629;28;20045;-70
2023/01/18 09:03:59;;;;;;;10.43;4.65;;;3.90;95.60;;;;;;5008759;28;20522;-70
2023/01/18 09:06:30;;;;;;;9.40;4.60;;;4.00;95.50;;;;;;5014557;28;20029;-71
2023/01/18 09:08:57;;;;;;;8.77;3.80;;;4.00;95.40;;;;;;5009573;28;20034;-69
2023/01/18 09:11:22;;;;;;;9.43;3.92;;;4.10;95.10;;;;;;5009108;28;20156;-70
2023/01/18 09:13:52;;;;;;;6.25;3.50;;;4.10;94.70;;;;;;5011147;28;20033;-69
2023/01/18 09:16:18;;;;;;;6.97;3.33;;;4.20;94.70;;;;;;5013075;28;20064;-71
2023/01/18 09:18:44;;;;;;;8.48;3.90;;;4.20;94.60;;;;;;5005769;28;20853;-70
2023/01/18 09:21:12;;;;;;;7.85;3.33;;;4.30;94.30;;;;;;5013000;28;20030;-71
2023/01/18 09:23:39;;;;;;;6.30;3.65;;;4.30;94.40;;;;;;5010809;28;20068;-71
2023/01/18 09:26:11;;;;;;;11.80;2.97;;;4.30;94.40;;;;;;5016617;28;20044;-68
2023/01/18 09:28:38;;;;;;;7.88;4.72;;;4.30;94.50;;;;;;5011391;28;20075;-75
2023/01/18 09:31:09;;;;;;;11.10;6.38;;;4.40;94.30;;;;;;5015026;28;20227;-71
2023/01/18 09:33:36;;;;;;;7.72;5.18;;;4.40;93.90;;;;;;5014399;28;20142;-70
2023/01/18 09:36:08;;;;;;;8.52;3.72;;;4.40;93.60;;;;;;5011378;28;20160;-72
2023/01/18 09:38:35;;;;;;;12.20;3.85;;;4.40;93.40;;;;;;5011483;28;20037;-71
2023/01/18 09:41:04;;;;;;;5.72;3.10;;;4.40;93.00;;;;;;5011693;28;20105;-71
2023/01/18 09:43:42;;;;;;;5.45;2.92;;;4.40;92.90;;;;;;5010294;28;20034;-66
2023/01/18 09:46:17;;;;;;;5.97;3.05;;;4.40;93.10;;;;;;5012754;28;20034;-70
2023/01/18 09:48:47;;;;;;;8.97;3.90;;;4.40;93.00;;;;;;5018671;28;20033;-69
2023/01/18 09:51:19;;;;;;;7.72;3.35;;;4.40;92.70;;;;;;5006573;28;20688;-73
2023/01/18 09:54:23;;;;;;;6.60;3.10;;;4.50;92.40;;;;;;5006745;28;20690;-72
2023/01/18 09:57:09;;;;;;;8.32;2.92;;;4.50;92.50;;;;;;5004448;28;20045;-71
2023/01/18 09:59:49;;;;;;;4.95;3.10;;;4.50;92.60;;;;;;5014375;28;20040;-71
2023/01/18 10:02:23;;;;;;;5.25;3.10;;;4.60;92.80;;;;;;5012498;28;20045;-70
2023/01/18 10:04:57;;;;;;;4.80;3.13;;;4.70;92.60;;;;;;5005686;28;20048;-69
2023/01/18 10:07:26;;;;;;;12.55;5.53;;;4.70;92.70;;;;;;5016501;28;20119;-70
2023/01/18 10:09:59;;;;;;;8.63;3.75;;;4.80;92.20;;;;;;5015523;28;20732;-70
2023/01/18 10:12:40;;;;;;;11.48;3.53;;;4.80;92.30;;;;;;5012540;28;20037;-69
2023/01/18 10:15:19;;;;;;;4.15;3.00;;;4.80;92.30;;;;;;5014737;28;20150;-70
2023/01/18 10:17:46;;;;;;;5.43;3.03;;;4.90;92.20;;;;;;5012044;28;20041;-70
2023/01/18 10:20:22;;;;;;;15.18;6.70;;;4.90;91.80;;;;;;5007485;28;20029;-70
2023/01/18 10:22:56;;;;;;;11.38;6.40;;;4.90;91.60;;;;;;5008942;28;20038;-70
2023/01/18 10:25:46;;;;;;;9.15;4.60;;;5.00;91.50;;;;;;5015013;28;20575;-71
2023/01/18 10:28:31;;;;;;;5.50;3.28;;;5.00;91.70;;;;;;5008433;28;20030;-70
2023/01/18 10:31:02;;;;;;;8.15;4.03;;;5.10;91.70;;;;;;5003219;28;20058;-70
2023/01/18 10:33:32;;;;;;;7.85;4.13;;;5.10;91.60;;;;;;5013278;28;20048;-70
2023/01/18 10:36:12;;;;;;;8.40;3.58;;;5.20;91.50;;;;;;5013396;28;20837;-67
2023/01/18 10:38:39;;;;;;;7.45;3.97;;;5.20;91.20;;;;;;4989847;28;20095;-68
2023/01/18 10:41:16;;;;;;;6.65;3.42;;;5.30;91.20;;;;;;5005095;28;20041;-68
2023/01/18 10:43:43;;;;;;;7.45;3.75;;;5.30;90.80;;;;;;4968779;28;20025;-67
2023/01/18 10:46:15;;;;;;;5.18;3.28;;;5.40;90.70;;;;;;5010889;28;20041;-68
2023/01/18 10:48:51;;;;;;;11.05;3.40;;;5.40;90.60;;;;;;5013521;28;20032;-67
2023/01/18 10:51:36;;;;;;;6.53;3.55;;;5.50;90.60;;;;;;5004695;28;20074;-66
2023/01/18 10:54:31;;;;;;;8.18;3.58;;;5.50;90.40;;;;;;5007821;28;20649;-67
2023/01/18 10:57:03;;;;;;;6.60;3.22;;;5.50;89.70;;;;;;5008177;28;20076;-68
2023/01/18 10:59:38;;;;;;;6.15;3.17;;;5.40;89.80;;;;;;5015696;28;20033;-68
2023/01/18 11:02:15;;;;;;;6.82;3.28;;;5.40;89.30;;;;;;5014087;28;20840;-67
2023/01/18 11:04:41;;;;;;;7.90;4.53;;;5.40;89.40;;;;;;5012301;28;20029;-67
2023/01/18 11:07:08;;;;;;;7.55;4.60;;;5.40;89.80;;;;;;5011932;28;20040;-67
2023/01/18 11:09:33;;;;;;;14.50;6.45;;;5.40;90.00;;;;;;5016771;28;20092;-67
2023/01/18 11:12:32;;;;;;;11.75;4.18;;;5.40;90.10;;;;;;5014065;28;20037;-68
2023/01/18 11:15:24;;;;;;;8.70;3.58;;;5.40;90.00;;;;;;4977336;28;20041;-67
2023/01/18 11:17:54;;;;;;;6.22;3.50;;;5.40;90.10;;;;;;5012659;28;20120;-68
2023/01/18 11:20:38;;;;;;;6.35;3.22;;;5.40;90.10;;;;;;5012730;28;20037;-67
2023/01/18 11:23:19;;;;;;;4.72;3.30;;;5.40;90.40;;;;;;5013648;28;20045;-68
2023/01/18 11:25:53;;;;;;;5.93;3.20;;;5.40;90.40;;;;;;5011571;28;20029;-68
2023/01/18 11:28:22;;;;;;;5.38;3.03;;;5.40;90.30;;;;;;5013823;28;20617;-70
2023/01/18 11:31:05;;;;;;;5.55;3.45;;;5.40;90.00;;;;;;5003372;28;20080;-68
2023/01/18 11:33:31;;;;;;;16.67;4.05;;;5.40;90.00;;;;;;5009382;28;20037;-68
2023/01/18 11:36:00;;;;;;;6.32;2.97;;;5.40;90.10;;;;;;5014133;28;20052;-68
2023/01/18 11:38:29;;;;;;;10.25;3.58;;;5.40;90.40;;;;;;5015845;28;20025;-68
2023/01/18 11:41:14;;;;;;;6.95;3.13;;;5.40;90.50;;;;;;5017171;28;20133;-68
2023/01/18 11:44:19;;;;;;;14.73;6.88;;;5.40;90.50;;;;;;5011685;28;20049;-68
2023/01/18 11:46:57;;;;;;;8.85;4.43;;;5.40;90.00;;;;;;4957104;28;20043;-67
2023/01/18 11:49:48;;;;;;;9.52;4.63;;;5.30;89.70;;;;;;5009237;28;20052;-68
2023/01/18 11:52:41;;;;;;;11.65;6.20;;;5.40;89.60;;;;;;5013850;28;20059;-67
2023/01/18 11:55:37;;;;;;;17.05;7.25;;;5.30;89.70;;;;;;5018675;28;20124;-67
2023/01/18 11:58:12;;;;;;;9.82;6.55;;;5.40;90.00;;;;;;5014551;28;20040;-67
2023/01/18 12:01:08;;;;;;;12.02;7.20;;;5.30;90.10;;;;;;5019936;28;20124;-68
2023/01/18 12:04:03;;;;;;;6.30;4.60;;;5.40;90.30;;;;;;5012327;28;20077;-68
2023/01/18 12:06:57;;;;;;;7.38;4.30;;;5.30;90.10;;;;;;5005931;28;20906;-68
2023/01/18 12:09:41;;;;;;;10.15;5.22;;;5.30;90.00;;;;;;5013746;28;20029;-67
2023/01/18 12:12:14;;;;;;;12.65;5.55;;;5.30;90.10;;;;;;5018285;28;20041;-70
2023/01/18 12:14:46;;;;;;;12.57;5.57;;;5.30;90.10;;;;;;5013244;28;20037;-69
2023/01/18 12:17:32;;;;;;;13.85;6.10;;;5.30;90.00;;;;;;5013419;28;20064;-68
2023/01/18 12:19:58;;;;;;;21.23;9.50;;;5.30;90.20;;;;;;5014424;28;20037;-70
2023/01/18 12:22:30;;;;;;;20.73;10.45;;;5.30;90.20;;;;;;5013613;28;20040;-67
2023/01/18 12:25:14;;;;;;;27.13;13.55;;;5.30;90.30;;;;;;5013276;28;20045;-70
2023/01/18 12:27:57;;;;;;;18.77;9.43;;;5.40;90.40;;;;;;5011203;28;20522;-73
2023/01/18 12:31:01;;;;;;;17.67;9.27;;;5.40;90.40;;;;;;5014902;28;20060;-72
2023/01/18 12:33:56;;;;;;;12.48;7.30;;;5.30;90.50;;;;;;5013632;28;20915;-67
2023/01/18 12:36:54;;;;;;;10.10;6.00;;;5.40;90.70;;;;;;5007341;28;20053;-67
2023/01/18 12:39:39;;;;;;;9.63;4.68;;;5.30;90.60;;;;;;5010979;28;20033;-67
2023/01/18 12:42:14;;;;;;;15.80;6.97;;;5.40;90.40;;;;;;5011977;28;20053;-67
2023/01/18 12:44:57;;;;;;;15.88;8.07;;;5.40;90.40;;;;;;5011968;28;20100;-66
2023/01/18 12:47:41;;;;;;;14.10;5.93;;;5.40;90.40;;;;;;5008265;28;20040;-68
2023/01/18 12:50:14;;;;;;;11.30;5.28;;;5.40;90.40;;;;;;5011879;28;20120;-70
2023/01/18 12:52:46;;;;;;;11.20;5.72;;;5.40;90.30;;;;;;5011126;28;20137;-70
2023/01/18 12:55:21;;;;;;;20.70;10.80;;;5.40;90.30;;;;;;5008342;28;20046;-71
2023/01/18 12:57:53;;;;;;;17.70;8.35;;;5.40;90.30;;;;;;5012892;28;20040;-66
2023/01/18 13:00:25;;;;;;;16.40;7.88;;;5.30;90.30;;;;;;5012496;28;20042;-70
2023/01/18 13:02:56;;;;;;;22.58;10.20;;;5.30;90.30;;;;;;5008565;28;20065;-70
2023/01/18 13:05:33;;;;;;;31.00;13.00;;;5.30;90.20;;;;;;5015363;28;20033;-69
2023/01/18 13:08:19;;;;;;;27.55;11.75;;;5.30;90.10;;;;;;5013457;28;20103;-70
2023/01/18 13:10:47;;;;;;;24.80;13.40;;;5.30;90.20;;;;;;5009291;28;20036;-70
2023/01/18 13:13:18;;;;;;;30.38;13.45;;;5.30;90.30;;;;;;5014588;28;20034;-70
2023/01/18 13:15:52;;;;;;;19.15;10.05;;;5.30;90.50;;;;;;5012218;28;20108;-69
2023/01/18 13:18:41;;;;;;;15.20;7.70;;;5.30;90.40;;;;;;5009907;28;20111;-66
2023/01/18 13:21:30;;;;;;;15.63;8.32;;;5.30;90.40;;;;;;5006741;28;20034;-70
2023/01/18 13:24:14;;;;;;;12.88;7.53;;;5.30;90.40;;;;;;5012345;28;20103;-65
2023/01/18 13:26:40;;;;;;;11.07;6.00;;;5.30;90.40;;;;;;5009898;28;20145;-68
2023/01/18 13:29:18;;;;;;;15.35;6.10;;;5.40;90.40;;;;;;5010299;28;20044;-69
2023/01/18 13:31:45;;;;;;;8.40;5.47;;;5.40;90.30;;;;;;5011304;28;20029;-69
2023/01/18 13:34:29;;;;;;;10.88;6.47;;;5.30;90.30;;;;;;5004080;28;20036;-69
2023/01/18 13:36:57;;;;;;;9.43;4.80;;;5.40;90.30;;;;;;5011135;28;20037;-71
2023/01/18 13:39:23;;;;;;;14.38;6.95;;;5.30;90.50;;;;;;5009871;28;20021;-68
2023/01/18 13:42:27;;;;;;;12.30;7.45;;;5.40;90.50;;;;;;5012636;28;20029;-68
2023/01/18 13:45:17;;;;;;;10.38;6.35;;;5.40;90.20;;;;;;4997847;28;20041;-68
2023/01/18 13:48:26;;;;;;;10.05;5.25;;;5.40;90.10;;;;;;5008403;28;20033;-67
2023/01/18 13:50:53;;;;;;;8.25;4.40;;;5.40;90.10;;;;;;5009383;28;20033;-68
2023/01/18 13:53:21;;;;;;;18.80;4.70;;;5.40;90.00;;;;;;5008238;28;20044;-68
2023/01/18 13:56:03;;;;;;;6.32;4.57;;;5.40;90.00;;;;;;5011016;28;20048;-70